createdAt,value
2022-10-07T00:00:38.977Z,14.37
2022-10-07T00:05:47.054Z,13.00
2022-10-07T00:10:54.943Z,13.57
2022-10-07T00:16:06.929Z,13.93
2022-10-07T00:21:16.036Z,13.33
2022-10-07T00:26:25.548Z,14.33
2022-10-07T00:31:36.334Z,15.00
2022-10-07T00:36:44.167Z,12.83
2022-10-07T00:41:53.004Z,13.67
2022-10-07T00:47:03.422Z,13.40
2022-10-07T00:52:11.335Z,12.77
2022-10-07T00:57:19.259Z,14.10
2022-10-07T01:02:27.446Z,12.40
2022-10-07T01:07:35.881Z,12.23
2022-10-07T01:12:47.508Z,12.23
2022-10-07T01:17:59.912Z,11.50
2022-10-07T01:23:11.913Z,13.53
2022-10-07T01:28:23.417Z,11.73
2022-10-07T01:33:33.342Z,12.57
2022-10-07T01:38:44.551Z,11.77
2022-10-07T01:43:53.770Z,11.20
2022-10-07T01:49:02.339Z,11.30
2022-10-07T01:54:14.442Z,11.30
2022-10-07T01:59:25.768Z,11.03
2022-10-07T02:04:37.129Z,10.20
2022-10-07T02:09:47.663Z,11.03
2022-10-07T02:14:59.155Z,11.50
2022-10-07T02:20:08.319Z,11.17
2022-10-07T02:25:17.079Z,9.70
2022-10-07T02:30:26.095Z,9.70
2022-10-07T02:35:39.783Z,11.13
2022-10-07T02:46:04.019Z,10.10
2022-10-07T02:51:20.853Z,9.10
2022-10-07T02:56:26.959Z,9.43
2022-10-07T03:01:40.380Z,9.57
2022-10-07T03:06:48.296Z,8.83
2022-10-07T03:11:56.070Z,8.10
2022-10-07T03:17:04.310Z,7.23
2022-10-07T03:22:12.596Z,8.40
2022-10-07T03:27:21.183Z,8.50
2022-10-07T03:32:30.965Z,7.97
2022-10-07T03:37:38.968Z,9.20
2022-10-07T03:42:46.894Z,7.20
2022-10-07T03:47:54.915Z,9.37
2022-10-07T03:53:03.336Z,7.87
2022-10-07T03:58:12.911Z,8.57
2022-10-07T04:03:20.954Z,8.50
2022-10-07T04:08:32.610Z,8.90
2022-10-07T04:13:41.715Z,8.17
2022-10-07T04:18:50.909Z,8.33
2022-10-07T04:23:58.818Z,8.10
2022-10-07T04:29:08.837Z,7.13
2022-10-07T04:34:16.821Z,7.80
2022-10-07T04:39:42.763Z,7.57
2022-10-07T04:44:35.982Z,8.30
2022-10-07T04:49:48.719Z,7.97
2022-10-07T04:54:57.248Z,7.13
2022-10-07T05:00:06.501Z,7.70
2022-10-07T05:05:14.284Z,7.73
2022-10-07T05:10:23.229Z,7.53
2022-10-07T05:15:32.686Z,7.23
2022-10-07T05:20:42.181Z,8.73
2022-10-07T05:25:54.041Z,8.13
2022-10-07T05:31:04.363Z,10.00
2022-10-07T05:36:12.367Z,10.73
2022-10-07T05:41:22.438Z,11.40
2022-10-07T05:46:30.597Z,11.07
2022-10-07T05:51:38.449Z,14.03
2022-10-07T05:56:46.265Z,13.33
2022-10-07T06:01:55.761Z,14.50
2022-10-07T06:07:04.333Z,13.03
2022-10-07T06:12:13.894Z,12.57
2022-10-07T06:17:21.912Z,11.10
2022-10-07T06:22:29.737Z,13.20
2022-10-07T06:27:37.564Z,18.07
2022-10-07T06:32:45.556Z,19.97
2022-10-07T06:37:53.405Z,22.30
2022-10-07T06:43:01.497Z,21.90
2022-10-07T06:48:09.527Z,22.10
2022-10-07T06:53:18.097Z,19.23
2022-10-07T06:58:26.323Z,19.53
2022-10-07T07:03:35.376Z,16.60
2022-10-07T07:08:45.104Z,19.53
2022-10-07T07:13:54.706Z,14.83
2022-10-07T07:19:05.493Z,16.63
2022-10-07T07:24:15.420Z,18.13
2022-10-07T07:29:23.347Z,17.70
2022-10-07T07:34:32.868Z,20.37
2022-10-07T07:39:43.078Z,21.47
2022-10-07T07:44:51.985Z,17.97
2022-10-07T07:49:59.946Z,21.30
2022-10-07T07:55:08.522Z,21.43
2022-10-07T08:00:16.811Z,21.53
2022-10-07T08:05:25.490Z,24.93
2022-10-07T08:10:33.378Z,25.77
2022-10-07T08:15:43.793Z,21.90
2022-10-07T08:20:56.386Z,20.23
2022-10-07T08:26:04.512Z,15.27
2022-10-07T08:31:14.559Z,15.40
2022-10-07T08:36:23.457Z,14.43
2022-10-07T08:41:35.072Z,12.97
2022-10-07T08:46:46.366Z,11.93
2022-10-07T08:51:58.991Z,12.07
2022-10-07T08:57:10.086Z,11.23
2022-10-07T09:02:21.207Z,10.17
2022-10-07T09:07:34.023Z,9.03
2022-10-07T09:12:45.109Z,7.73
2022-10-07T09:17:56.783Z,7.67
2022-10-07T09:23:12.561Z,8.10
2022-10-07T09:28:25.755Z,7.53
2022-10-07T09:33:37.272Z,6.07
2022-10-07T09:38:46.790Z,6.17
2022-10-07T09:43:58.030Z,6.47
2022-10-07T09:49:06.051Z,5.60
2022-10-07T09:54:17.062Z,6.03
2022-10-07T09:59:29.024Z,6.43
2022-10-07T10:04:38.826Z,5.30
2022-10-07T10:09:50.151Z,5.70
2022-10-07T10:15:00.603Z,6.47
2022-10-07T10:20:11.799Z,6.23
2022-10-07T10:25:23.558Z,5.90
2022-10-07T10:30:31.507Z,6.07
2022-10-07T10:35:42.628Z,6.63
2022-10-07T10:46:09.587Z,6.37
2022-10-07T10:51:22.723Z,6.07
2022-10-07T10:56:35.101Z,6.63
2022-10-07T11:01:44.172Z,5.70
2022-10-07T11:06:55.753Z,4.80
2022-10-07T11:12:05.442Z,5.60
2022-10-07T11:17:13.374Z,5.50
2022-10-07T11:22:23.832Z,5.03
2022-10-07T11:27:34.037Z,5.10
2022-10-07T11:32:45.514Z,5.37
2022-10-07T11:37:58.068Z,5.23
2022-10-07T11:43:10.253Z,3.80
2022-10-07T11:48:21.437Z,5.80
2022-10-07T11:53:29.872Z,5.30
2022-10-07T11:58:40.100Z,3.63
2022-10-07T12:03:48.394Z,5.57
2022-10-07T12:08:56.691Z,5.80
2022-10-07T12:14:07.725Z,4.97
2022-10-07T12:19:19.810Z,4.33
2022-10-07T12:24:27.545Z,4.73
2022-10-07T12:29:38.643Z,4.30
2022-10-07T12:34:47.626Z,5.00
2022-10-07T12:39:55.525Z,3.60
2022-10-07T12:45:03.432Z,4.67
2022-10-07T12:50:14.482Z,4.33
2022-10-07T12:55:29.296Z,4.33
2022-10-07T13:00:34.435Z,4.60
2022-10-07T13:05:45.532Z,4.53
2022-10-07T13:10:57.067Z,4.50
2022-10-07T13:16:08.587Z,4.90
2022-10-07T13:21:20.248Z,4.70
2022-10-07T13:26:29.409Z,4.83
2022-10-07T13:31:37.359Z,4.90
2022-10-07T13:36:45.391Z,4.30
2022-10-07T13:41:56.864Z,4.20
2022-10-07T13:47:06.102Z,5.10
2022-10-07T13:52:17.568Z,4.43
2022-10-07T13:57:25.355Z,4.70
2022-10-07T14:02:37.619Z,5.07
2022-10-07T14:07:43.325Z,5.30
2022-10-07T14:12:51.963Z,4.63
2022-10-07T14:18:03.124Z,5.03
2022-10-07T14:23:15.231Z,4.67
2022-10-07T14:28:28.571Z,4.40
2022-10-07T14:33:41.324Z,4.37
2022-10-07T14:38:50.623Z,4.40
2022-10-07T14:44:00.499Z,4.60
2022-10-07T14:49:10.360Z,4.87
2022-10-07T14:54:20.036Z,4.57
2022-10-07T14:59:27.965Z,5.57
2022-10-07T15:04:36.562Z,5.23
2022-10-07T15:09:45.267Z,5.27
2022-10-07T15:14:53.164Z,5.03
2022-10-07T15:20:01.076Z,6.60
2022-10-07T15:25:10.780Z,5.30
2022-10-07T15:30:19.090Z,5.57
2022-10-07T15:35:28.034Z,5.17
2022-10-07T15:40:36.120Z,10.00
2022-10-07T15:45:46.233Z,7.97
2022-10-07T15:50:55.471Z,6.30
2022-10-07T15:56:03.327Z,5.77
2022-10-07T16:01:12.830Z,5.90
2022-10-07T16:06:23.669Z,5.93
2022-10-07T16:11:33.264Z,7.10
2022-10-07T16:16:42.557Z,7.80
2022-10-07T16:21:50.443Z,7.20
2022-10-07T16:26:59.130Z,8.77
2022-10-07T16:32:09.018Z,13.57
2022-10-07T16:37:17.555Z,14.53
2022-10-07T16:42:25.581Z,15.80
2022-10-07T16:47:33.947Z,16.07
2022-10-07T16:52:41.942Z,14.47
2022-10-07T16:57:51.188Z,16.23
2022-10-07T17:02:59.219Z,15.87
2022-10-07T17:08:07.817Z,13.07
2022-10-07T17:13:21.839Z,11.23
2022-10-07T17:18:28.896Z,13.00
2022-10-07T17:23:36.913Z,13.70
2022-10-07T17:28:44.979Z,13.00
2022-10-07T17:33:53.570Z,12.13
2022-10-07T17:39:01.602Z,14.23
2022-10-07T17:44:10.934Z,17.40
2022-10-07T17:49:23.059Z,21.60
2022-10-07T17:54:31.475Z,17.63
2022-10-07T17:59:42.347Z,17.53
2022-10-07T18:04:51.946Z,15.17
2022-10-07T18:10:00.595Z,15.30
2022-10-07T18:15:12.391Z,15.80
2022-10-07T18:20:21.830Z,17.63
2022-10-07T18:25:29.756Z,18.03
2022-10-07T18:30:38.790Z,17.97
2022-10-07T18:35:46.901Z,18.27
2022-10-07T18:40:55.777Z,17.87
2022-10-07T18:46:06.810Z,17.67
2022-10-07T18:51:14.915Z,18.00
2022-10-07T18:56:24.575Z,17.30
2022-10-07T19:01:33.385Z,18.27
2022-10-07T19:06:44.226Z,16.37
2022-10-07T19:11:52.609Z,19.57
2022-10-07T19:17:00.659Z,18.47
2022-10-07T19:22:09.916Z,18.53
2022-10-07T19:27:18.799Z,17.83
2022-10-07T19:32:27.127Z,16.10
2022-10-07T19:37:39.277Z,17.27
2022-10-07T19:42:48.781Z,19.00
2022-10-07T19:48:00.371Z,17.73
2022-10-07T19:53:10.222Z,19.13
2022-10-07T19:58:19.468Z,18.33
2022-10-07T20:03:29.194Z,16.17
2022-10-07T20:08:39.483Z,15.20
2022-10-07T20:13:47.601Z,13.43
2022-10-07T20:18:58.934Z,14.70
2022-10-07T20:24:07.979Z,14.80
2022-10-07T20:29:21.480Z,14.03
2022-10-07T20:34:27.640Z,13.40
2022-10-07T20:39:37.651Z,12.37
2022-10-07T20:44:47.271Z,12.67
2022-10-07T20:49:57.542Z,12.33
2022-10-07T20:55:07.071Z,12.90
2022-10-07T21:00:17.178Z,11.60
2022-10-07T21:05:25.506Z,12.07
2022-10-07T21:10:34.778Z,12.67
2022-10-07T21:15:42.786Z,11.73
2022-10-07T21:20:56.515Z,11.03
2022-10-07T21:26:02.719Z,11.63
2022-10-07T21:31:14.336Z,11.10
2022-10-07T21:36:24.979Z,11.53
2022-10-07T21:41:35.432Z,11.03
2022-10-07T21:46:45.744Z,11.67
2022-10-07T21:51:53.918Z,11.17
2022-10-07T21:57:04.614Z,11.20
2022-10-07T22:02:13.352Z,10.43
2022-10-07T22:07:22.824Z,9.63
2022-10-07T22:12:30.739Z,10.30
2022-10-07T22:17:38.696Z,10.60
2022-10-07T22:22:47.354Z,10.00
2022-10-07T22:27:56.394Z,9.70
2022-10-07T22:33:04.482Z,10.47
2022-10-07T22:38:12.571Z,10.67
2022-10-07T22:43:20.460Z,10.47
2022-10-07T22:48:30.595Z,10.97
2022-10-07T22:53:40.023Z,10.97
2022-10-07T22:58:51.288Z,9.50
2022-10-07T23:04:01.054Z,10.27
2022-10-07T23:09:10.069Z,9.93
2022-10-07T23:14:18.237Z,10.57
2022-10-07T23:19:28.372Z,11.77
2022-10-07T23:24:37.130Z,10.77
2022-10-07T23:29:45.233Z,10.83
2022-10-07T23:34:54.829Z,12.20
2022-10-07T23:40:03.640Z,11.07
2022-10-07T23:45:13.314Z,10.90
2022-10-07T23:50:21.409Z,10.67
2022-10-07T23:55:29.351Z,11.90
